sensor_id;sensor_type;location;lat;lon;timestamp;pressure;altitude;pressure_sealevel;temperature;humidity
64025;BME280;50266;57.446;26.936;2023-08-12T00:00:39;99709.86;;;12.54;100.0
64025;BME280;50266;57.446;26.936;2023-08-12T00:01:39;99710.86;;;12.54;100.0
64025;BME280;50266;57.446;26.936;2023-08-12T00:02:40;99709.0;;;12.53;100.0
64025;BME280;50266;57.446;26.936;2023-08-12T00:03:39;99709.05;;;12.5;100.0
64025;BME280;50266;57.446;26.936;2023-08-12T00:04:39;99708.36;;;12.48;100.0
64025;BME280;50266;57.446;26.936;2023-08-12T00:05:39;99708.23;;;12.44;100.0
64025;BME280;50266;57.446;26.936;2023-08-12T00:06:40;99708.68;;;12.44;100.0
64025;BME280;50266;57.446;26.936;2023-08-12T00:07:40;99712.21;;;12.43;100.0
64025;BME280;50266;57.446;26.936;2023-08-12T00:08:40;99712.69;;;12.43;100.0
64025;BME280;50266;57.446;26.936;2023-08-12T00:09:40;99717.65;;;12.42;100.0
64025;BME280;50266;57.446;26.936;2023-08-12T00:10:40;99713.8;;;12.43;100.0
64025;BME280;50266;57.446;26.936;2023-08-12T00:11:40;99715.58;;;12.42;100.0
64025;BME280;50266;57.446;26.936;2023-08-12T00:12:40;99712.05;;;12.48;100.0
64025;BME280;50266;57.446;26.936;2023-08-12T00:13:40;99715.27;;;12.5;100.0
64025;BME280;50266;57.446;26.936;2023-08-12T00:14:40;99710.67;;;12.56;100.0
64025;BME280;50266;57.446;26.936;2023-08-12T00:15:40;99711.53;;;12.56;100.0
64025;BME280;50266;57.446;26.936;2023-08-12T00:16:40;99711.02;;;12.6;100.0
64025;BME280;50266;57.446;26.936;2023-08-12T00:17:40;99710.34;;;12.67;100.0
64025;BME280;50266;57.446;26.936;2023-08-12T00:18:40;99708.57;;;12.76;100.0
64025;BME280;50266;57.446;26.936;2023-08-12T00:19:40;99707.2;;;12.72;100.0
64025;BME280;50266;57.446;26.936;2023-08-12T00:20:40;99706.99;;;12.73;100.0
64025;BME280;50266;57.446;26.936;2023-08-12T00:21:40;99703.23;;;12.76;100.0
64025;BME280;50266;57.446;26.936;2023-08-12T00:22:40;99705.8;;;12.71;100.0
64025;BME280;50266;57.446;26.936;2023-08-12T00:23:40;99705.14;;;12.71;100.0
64025;BME280;50266;57.446;26.936;2023-08-12T00:24:40;99705.48;;;12.69;100.0
64025;BME280;50266;57.446;26.936;2023-08-12T00:25:40;99706.83;;;12.64;100.0
64025;BME280;50266;57.446;26.936;2023-08-12T00:26:40;99707.65;;;12.59;100.0
64025;BME280;50266;57.446;26.936;2023-08-12T00:27:40;99708.12;;;12.56;100.0
64025;BME280;50266;57.446;26.936;2023-08-12T00:28:40;99707.21;;;12.54;100.0
64025;BME280;50266;57.446;26.936;2023-08-12T00:29:40;99706.67;;;12.53;100.0
64025;BME280;50266;57.446;26.936;2023-08-12T00:30:40;99711.07;;;12.51;100.0
64025;BME280;50266;57.446;26.936;2023-08-12T00:31:40;99707.7;;;12.52;100.0
64025;BME280;50266;57.446;26.936;2023-08-12T00:32:40;99707.91;;;12.51;100.0
64025;BME280;50266;57.446;26.936;2023-08-12T00:33:40;99705.59;;;12.49;100.0
64025;BME280;50266;57.446;26.936;2023-08-12T00:34:40;99702.44;;;12.47;100.0
64025;BME280;50266;57.446;26.936;2023-08-12T00:35:40;99701.2;;;12.45;100.0
64025;BME280;50266;57.446;26.936;2023-08-12T00:36:40;99698.85;;;12.44;100.0
64025;BME280;50266;57.446;26.936;2023-08-12T00:37:40;99696.19;;;12.44;100.0
64025;BME280;50266;57.446;26.936;2023-08-12T00:38:40;99698.08;;;12.42;100.0
64025;BME280;50266;57.446;26.936;2023-08-12T00:39:40;99698.0;;;12.4;100.0
64025;BME280;50266;57.446;26.936;2023-08-12T00:40:40;99698.38;;;12.38;100.0
64025;BME280;50266;57.446;26.936;2023-08-12T00:41:40;99700.81;;;12.37;100.0
64025;BME280;50266;57.446;26.936;2023-08-12T00:42:40;99700.59;;;12.31;100.0
64025;BME280;50266;57.446;26.936;2023-08-12T00:43:40;99699.5;;;12.27;100.0
64025;BME280;50266;57.446;26.936;2023-08-12T00:44:40;99697.48;;;12.2;100.0
64025;BME280;50266;57.446;26.936;2023-08-12T00:45:40;99697.41;;;12.18;100.0
64025;BME280;50266;57.446;26.936;2023-08-12T00:46:40;99700.74;;;12.14;100.0
64025;BME280;50266;57.446;26.936;2023-08-12T00:47:40;99697.3;;;12.17;100.0
64025;BME280;50266;57.446;26.936;2023-08-12T00:48:40;99696.39;;;12.13;100.0
64025;BME280;50266;57.446;26.936;2023-08-12T00:49:40;99694.19;;;12.08;100.0
64025;BME280;50266;57.446;26.936;2023-08-12T00:50:40;99699.69;;;12.06;100.0
64025;BME280;50266;57.446;26.936;2023-08-12T00:51:40;99697.84;;;12.14;100.0
64025;BME280;50266;57.446;26.936;2023-08-12T00:52:40;99700.8;;;12.11;100.0
64025;BME280;50266;57.446;26.936;2023-08-12T00:53:40;99696.86;;;12.14;100.0
64025;BME280;50266;57.446;26.936;2023-08-12T00:54:40;99699.41;;;12.18;100.0
64025;BME280;50266;57.446;26.936;2023-08-12T00:55:40;99698.58;;;12.16;100.0
64025;BME280;50266;57.446;26.936;2023-08-12T00:56:40;99701.85;;;12.14;100.0
64025;BME280;50266;57.446;26.936;2023-08-12T00:57:40;99704.11;;;12.15;100.0
64025;BME280;50266;57.446;26.936;2023-08-12T00:58:40;99704.63;;;12.15;100.0
64025;BME280;50266;57.446;26.936;2023-08-12T00:59:41;99699.96;;;12.13;100.0
64025;BME280;50266;57.446;26.936;2023-08-12T01:00:40;99707.22;;;12.15;100.0
64025;BME280;50266;57.446;26.936;2023-08-12T01:01:40;99704.98;;;12.16;100.0
64025;BME280;50266;57.446;26.936;2023-08-12T01:02:42;99703.95;;;12.15;100.0
64025;BME280;50266;57.446;26.936;2023-08-12T01:03:41;99709.12;;;12.11;100.0
64025;BME280;50266;57.446;26.936;2023-08-12T01:04:40;99708.86;;;12.09;100.0
64025;BME280;50266;57.446;26.936;2023-08-12T01:05:40;99705.82;;;12.08;100.0
64025;BME280;50266;57.446;26.936;2023-08-12T01:06:40;99706.38;;;12.13;100.0
64025;BME280;50266;57.446;26.936;2023-08-12T01:07:40;99709.22;;;12.19;100.0
64025;BME280;50266;57.446;26.936;2023-08-12T01:08:40;99711.17;;;12.2;100.0
64025;BME280;50266;57.446;26.936;2023-08-12T01:09:40;99708.16;;;12.22;100.0
64025;BME280;50266;57.446;26.936;2023-08-12T01:10:43;99709.02;;;12.28;100.0
64025;BME280;50266;57.446;26.936;2023-08-12T01:11:49;99710.55;;;12.13;100.0
64025;BME280;50266;57.446;26.936;2023-08-12T01:12:45;99712.65;;;12.12;100.0
64025;BME280;50266;57.446;26.936;2023-08-12T01:13:49;99712.86;;;12.13;100.0
64025;BME280;50266;57.446;26.936;2023-08-12T01:14:56;99711.59;;;12.16;100.0
64025;BME280;50266;57.446;26.936;2023-08-12T01:15:48;99711.36;;;12.19;100.0
64025;BME280;50266;57.446;26.936;2023-08-12T01:16:49;99713.5;;;12.16;100.0
64025;BME280;50266;57.446;26.936;2023-08-12T01:17:53;99710.8;;;12.17;100.0
64025;BME280;50266;57.446;26.936;2023-08-12T01:18:50;99709.33;;;12.2;100.0
64025;BME280;50266;57.446;26.936;2023-08-12T01:19:50;99710.85;;;12.21;100.0
64025;BME280;50266;57.446;26.936;2023-08-12T01:20:50;99708.23;;;12.14;100.0
64025;BME280;50266;57.446;26.936;2023-08-12T01:21:50;99711.38;;;12.09;100.0
64025;BME280;50266;57.446;26.936;2023-08-12T01:22:57;99708.54;;;12.07;100.0
64025;BME280;50266;57.446;26.936;2023-08-12T01:23:54;99707.36;;;12.02;100.0
64025;BME280;50266;57.446;26.936;2023-08-12T01:24:55;99708.31;;;11.94;100.0
64025;BME280;50266;57.446;26.936;2023-08-12T01:25:55;99709.0;;;11.85;100.0
64025;BME280;50266;57.446;26.936;2023-08-12T01:26:55;99704.42;;;11.76;100.0
64025;BME280;50266;57.446;26.936;2023-08-12T01:27:55;99710.11;;;11.87;100.0
64025;BME280;50266;57.446;26.936;2023-08-12T01:28:55;99710.24;;;11.89;100.0
64025;BME280;50266;57.446;26.936;2023-08-12T01:29:55;99712.05;;;11.88;100.0
64025;BME280;50266;57.446;26.936;2023-08-12T01:31:01;99708.34;;;11.82;100.0
64025;BME280;50266;57.446;26.936;2023-08-12T01:31:58;99707.81;;;11.86;100.0
64025;BME280;50266;57.446;26.936;2023-08-12T01:32:59;99706.88;;;11.94;100.0
64025;BME280;50266;57.446;26.936;2023-08-12T01:34:01;99708.16;;;12.01;100.0
64025;BME280;50266;57.446;26.936;2023-08-12T01:36:09;99703.94;;;11.89;100.0
64025;BME280;50266;57.446;26.936;2023-08-12T01:37:02;99704.05;;;11.88;100.0
64025;BME280;50266;57.446;26.936;2023-08-12T01:38:02;99701.93;;;11.91;100.0
64025;BME280;50266;57.446;26.936;2023-08-12T01:39:02;99700.92;;;11.93;100.0
64025;BME280;50266;57.446;26.936;2023-08-12T01:40:02;99703.52;;;11.95;100.0
64025;BME280;50266;57.446;26.936;2023-08-12T01:41:02;99702.09;;;11.95;100.0
64025;BME280;50266;57.446;26.936;2023-08-12T01:42:02;99705.05;;;11.94;100.0
64025;BME280;50266;57.446;26.936;2023-08-12T01:43:03;99707.17;;;11.89;100.0
64025;BME280;50266;57.446;26.936;2023-08-12T01:44:02;99705.3;;;11.9;100.0
64025;BME280;50266;57.446;26.936;2023-08-12T01:45:02;99707.41;;;11.91;100.0
64025;BME280;50266;57.446;26.936;2023-08-12T01:46:02;99706.67;;;11.85;100.0
64025;BME280;50266;57.446;26.936;2023-08-12T01:47:02;99708.86;;;11.81;100.0
64025;BME280;50266;57.446;26.936;2023-08-12T01:48:02;99707.69;;;11.79;100.0
64025;BME280;50266;57.446;26.936;2023-08-12T01:49:02;99706.69;;;11.73;100.0
64025;BME280;50266;57.446;26.936;2023-08-12T01:50:02;99703.01;;;11.78;100.0
64025;BME280;50266;57.446;26.936;2023-08-12T01:51:02;99703.91;;;11.8;100.0
64025;BME280;50266;57.446;26.936;2023-08-12T01:52:02;99701.26;;;11.76;100.0
64025;BME280;50266;57.446;26.936;2023-08-12T01:53:02;99702.94;;;11.71;100.0
64025;BME280;50266;57.446;26.936;2023-08-12T01:54:02;99700.77;;;11.63;100.0
64025;BME280;50266;57.446;26.936;2023-08-12T01:55:02;99702.15;;;11.58;100.0
64025;BME280;50266;57.446;26.936;2023-08-12T01:56:02;99703.12;;;11.53;100.0
64025;BME280;50266;57.446;26.936;2023-08-12T01:57:03;99697.33;;;11.56;100.0
64025;BME280;50266;57.446;26.936;2023-08-12T01:58:02;99699.84;;;11.52;100.0
64025;BME280;50266;57.446;26.936;2023-08-12T01:59:02;99699.88;;;11.48;100.0
64025;BME280;50266;57.446;26.936;2023-08-12T02:00:03;99703.25;;;11.38;100.0
64025;BME280;50266;57.446;26.936;2023-08-12T02:01:02;99702.55;;;11.41;100.0
64025;BME280;50266;57.446;26.936;2023-08-12T02:02:03;99705.42;;;11.36;100.0
64025;BME280;50266;57.446;26.936;2023-08-12T02:03:02;99709.02;;;11.33;100.0
64025;BME280;50266;57.446;26.936;2023-08-12T02:04:02;99706.2;;;11.31;100.0
64025;BME280;50266;57.446;26.936;2023-08-12T02:05:03;99708.03;;;11.3;100.0
64025;BME280;50266;57.446;26.936;2023-08-12T02:06:02;99710.9;;;11.32;100.0
64025;BME280;50266;57.446;26.936;2023-08-12T02:07:03;99707.17;;;11.33;100.0
64025;BME280;50266;57.446;26.936;2023-08-12T02:08:03;99707.94;;;11.37;100.0
64025;BME280;50266;57.446;26.936;2023-08-12T02:09:02;99711.02;;;11.33;100.0
64025;BME280;50266;57.446;26.936;2023-08-12T02:10:02;99711.83;;;11.31;100.0
64025;BME280;50266;57.446;26.936;2023-08-12T02:11:02;99712.38;;;11.3;100.0
64025;BME280;50266;57.446;26.936;2023-08-12T02:12:03;99712.18;;;11.33;100.0
64025;BME280;50266;57.446;26.936;2023-08-12T02:13:03;99708.54;;;11.35;100.0
64025;BME280;50266;57.446;26.936;2023-08-12T02:14:02;99711.36;;;11.28;100.0
64025;BME280;50266;57.446;26.936;2023-08-12T02:15:03;99714.27;;;11.19;100.0
64025;BME280;50266;57.446;26.936;2023-08-12T02:16:03;99710.93;;;11.15;100.0
64025;BME280;50266;57.446;26.936;2023-08-12T02:17:03;99712.4;;;11.17;100.0
64025;BME280;50266;57.446;26.936;2023-08-12T02:18:03;99716.77;;;11.16;100.0
64025;BME280;50266;57.446;26.936;2023-08-12T02:19:03;99715.09;;;11.14;100.0
64025;BME280;50266;57.446;26.936;2023-08-12T02:20:03;99720.58;;;11.1;100.0
64025;BME280;50266;57.446;26.936;2023-08-12T02:21:03;99719.06;;;11.08;100.0
64025;BME280;50266;57.446;26.936;2023-08-12T02:22:03;99725.12;;;11.04;100.0
64025;BME280;50266;57.446;26.936;2023-08-12T02:23:03;99724.7;;;11.02;100.0
64025;BME280;50266;57.446;26.936;2023-08-12T02:24:03;99724.03;;;11.01;100.0
64025;BME280;50266;57.446;26.936;2023-08-12T02:25:03;99723.91;;;10.98;100.0
64025;BME280;50266;57.446;26.936;2023-08-12T02:26:03;99726.55;;;10.98;100.0
64025;BME280;50266;57.446;26.936;2023-08-12T02:27:03;99721.11;;;10.97;100.0
64025;BME280;50266;57.446;26.936;2023-08-12T02:28:03;99720.41;;;10.96;100.0
64025;BME280;50266;57.446;26.936;2023-08-12T02:29:03;99721.69;;;10.93;100.0
64025;BME280;50266;57.446;26.936;2023-08-12T02:30:03;99720.95;;;10.94;100.0
64025;BME280;50266;57.446;26.936;2023-08-12T02:31:03;99722.27;;;10.9;100.0
64025;BME280;50266;57.446;26.936;2023-08-12T02:32:03;99720.86;;;10.92;100.0
64025;BME280;50266;57.446;26.936;2023-08-12T02:33:03;99722.07;;;10.89;100.0
64025;BME280;50266;57.446;26.936;2023-08-12T02:34:03;99722.77;;;10.88;100.0
64025;BME280;50266;57.446;26.936;2023-08-12T02:35:03;99722.92;;;10.88;100.0
64025;BME280;50266;57.446;26.936;2023-08-12T02:36:03;99724.38;;;10.85;100.0
64025;BME280;50266;57.446;26.936;2023-08-12T02:37:03;99724.83;;;10.86;100.0
64025;BME280;50266;57.446;26.936;2023-08-12T02:38:03;99727.2;;;10.85;100.0
64025;BME280;50266;57.446;26.936;2023-08-12T02:39:03;99732.23;;;10.86;100.0
64025;BME280;50266;57.446;26.936;2023-08-12T02:40:03;99726.94;;;10.9;100.0
64025;BME280;50266;57.446;26.936;2023-08-12T02:41:03;99727.45;;;10.92;100.0
64025;BME280;50266;57.446;26.936;2023-08-12T02:42:03;99729.55;;;10.96;100.0
64025;BME280;50266;57.446;26.936;2023-08-12T02:43:03;99730.7;;;10.94;100.0
64025;BME280;50266;57.446;26.936;2023-08-12T02:44:03;99726.15;;;10.96;100.0
64025;BME280;50266;57.446;26.936;2023-08-12T02:45:03;99731.56;;;10.97;100.0
64025;BME280;50266;57.446;26.936;2023-08-12T02:46:03;99730.06;;;11.0;100.0
64025;BME280;50266;57.446;26.936;2023-08-12T02:47:03;99732.39;;;11.07;100.0
64025;BME280;50266;57.446;26.936;2023-08-12T02:48:03;99732.77;;;11.06;100.0
64025;BME280;50266;57.446;26.936;2023-08-12T02:49:03;99730.11;;;11.09;100.0
64025;BME280;50266;57.446;26.936;2023-08-12T02:50:03;99728.58;;;11.14;100.0
64025;BME280;50266;57.446;26.936;2023-08-12T02:51:03;99727.3;;;11.13;100.0
64025;BME280;50266;57.446;26.936;2023-08-12T02:52:03;99729.52;;;11.09;100.0
64025;BME280;50266;57.446;26.936;2023-08-12T02:53:03;99730.77;;;10.99;100.0
64025;BME280;50266;57.446;26.936;2023-08-12T02:54:03;99728.17;;;10.93;100.0
64025;BME280;50266;57.446;26.936;2023-08-12T02:55:03;99728.73;;;10.93;100.0
64025;BME280;50266;57.446;26.936;2023-08-12T02:56:03;99733.11;;;10.92;100.0
64025;BME280;50266;57.446;26.936;2023-08-12T02:57:03;99730.19;;;10.92;100.0
64025;BME280;50266;57.446;26.936;2023-08-12T02:58:03;99731.23;;;10.95;100.0
64025;BME280;50266;57.446;26.936;2023-08-12T02:59:03;99732.92;;;10.94;100.0
64025;BME280;50266;57.446;26.936;2023-08-12T03:00:03;99732.47;;;10.96;100.0
64025;BME280;50266;57.446;26.936;2023-08-12T03:01:03;99731.94;;;10.99;100.0
64025;BME280;50266;57.446;26.936;2023-08-12T03:02:03;99730.91;;;11.01;100.0
64025;BME280;50266;57.446;26.936;2023-08-12T03:03:03;99732.8;;;10.98;100.0
64025;BME280;50266;57.446;26.936;2023-08-12T03:04:03;99731.77;;;10.98;100.0
64025;BME280;50266;57.446;26.936;2023-08-12T03:05:03;99732.94;;;10.96;100.0
64025;BME280;50266;57.446;26.936;2023-08-12T03:06:03;99734.53;;;10.94;100.0
64025;BME280;50266;57.446;26.936;2023-08-12T03:07:03;99733.63;;;10.88;100.0
64025;BME280;50266;57.446;26.936;2023-08-12T03:08:03;99732.8;;;10.89;100.0
64025;BME280;50266;57.446;26.936;2023-08-12T03:09:03;99728.24;;;10.91;100.0
64025;BME280;50266;57.446;26.936;2023-08-12T03:10:04;99732.02;;;10.94;100.0
64025;BME280;50266;57.446;26.936;2023-08-12T03:11:03;99734.23;;;10.91;100.0
64025;BME280;50266;57.446;26.936;2023-08-12T03:12:04;99737.53;;;10.87;100.0
64025;BME280;50266;57.446;26.936;2023-08-12T03:13:03;99738.05;;;10.84;100.0
64025;BME280;50266;57.446;26.936;2023-08-12T03:14:03;99737.84;;;10.85;100.0
64025;BME280;50266;57.446;26.936;2023-08-12T03:15:05;99737.83;;;10.99;100.0
64025;BME280;50266;57.446;26.936;2023-08-12T03:16:03;99738.63;;;10.99;100.0
64025;BME280;50266;57.446;26.936;2023-08-12T03:17:03;99741.27;;;11.0;100.0
64025;BME280;50266;57.446;26.936;2023-08-12T03:18:04;99739.5;;;11.04;100.0
64025;BME280;50266;57.446;26.936;2023-08-12T03:19:03;99741.98;;;11.13;100.0
64025;BME280;50266;57.446;26.936;2023-08-12T03:20:04;99743.48;;;11.11;100.0
64025;BME280;50266;57.446;26.936;2023-08-12T03:21:06;99743.8;;;11.14;100.0
64025;BME280;50266;57.446;26.936;2023-08-12T03:22:03;99743.22;;;11.09;100.0
64025;BME280;50266;57.446;26.936;2023-08-12T03:23:03;99741.95;;;11.1;100.0
64025;BME280;50266;57.446;26.936;2023-08-12T03:24:04;99740.89;;;11.28;100.0
64025;BME280;50266;57.446;26.936;2023-08-12T03:25:04;99741.66;;;11.36;100.0
64025;BME280;50266;57.446;26.936;2023-08-12T03:26:04;99740.61;;;11.35;100.0
64025;BME280;50266;57.446;26.936;2023-08-12T03:27:04;99739.66;;;11.36;100.0
64025;BME280;50266;57.446;26.936;2023-08-12T03:28:04;99740.5;;;11.34;100.0
64025;BME280;50266;57.446;26.936;2023-08-12T03:29:04;99739.67;;;11.38;100.0
64025;BME280;50266;57.446;26.936;2023-08-12T03:30:04;99738.22;;;11.35;100.0
64025;BME280;50266;57.446;26.936;2023-08-12T03:31:03;99735.61;;;11.3;100.0
64025;BME280;50266;57.446;26.936;2023-08-12T03:32:04;99732.64;;;11.37;100.0
64025;BME280;50266;57.446;26.936;2023-08-12T03:33:04;99730.72;;;11.43;100.0
64025;BME280;50266;57.446;26.936;2023-08-12T03:34:03;99732.52;;;11.4;100.0
64025;BME280;50266;57.446;26.936;2023-08-12T03:35:04;99728.75;;;11.38;100.0
64025;BME280;50266;57.446;26.936;2023-08-12T03:36:04;99731.68;;;11.36;100.0
64025;BME280;50266;57.446;26.936;2023-08-12T03:37:04;99730.55;;;11.42;100.0
64025;BME280;50266;57.446;26.936;2023-08-12T03:38:04;99729.8;;;11.43;100.0
64025;BME280;50266;57.446;26.936;2023-08-12T03:39:04;99732.67;;;11.44;100.0
64025;BME280;50266;57.446;26.936;2023-08-12T03:40:04;99732.38;;;11.42;100.0
64025;BME280;50266;57.446;26.936;2023-08-12T03:41:04;99732.71;;;11.41;100.0
64025;BME280;50266;57.446;26.936;2023-08-12T03:42:04;99732.55;;;11.39;100.0
64025;BME280;50266;57.446;26.936;2023-08-12T03:43:04;99728.03;;;11.38;100.0
64025;BME280;50266;57.446;26.936;2023-08-12T03:44:04;99726.86;;;11.4;100.0
64025;BME280;50266;57.446;26.936;2023-08-12T03:45:04;99727.44;;;11.5;100.0
64025;BME280;50266;57.446;26.936;2023-08-12T03:46:04;99727.73;;;11.57;100.0
64025;BME280;50266;57.446;26.936;2023-08-12T03:47:04;99727.71;;;11.6;100.0
64025;BME280;50266;57.446;26.936;2023-08-12T03:48:04;99720.73;;;11.69;100.0
64025;BME280;50266;57.446;26.936;2023-08-12T03:49:04;99715.47;;;11.75;100.0
64025;BME280;50266;57.446;26.936;2023-08-12T03:50:05;99716.2;;;11.87;100.0
64025;BME280;50266;57.446;26.936;2023-08-12T03:51:04;99715.5;;;12.01;100.0
64025;BME280;50266;57.446;26.936;2023-08-12T03:52:04;99712.28;;;11.9;100.0
64025;BME280;50266;57.446;26.936;2023-08-12T03:53:04;99711.17;;;11.93;100.0
64025;BME280;50266;57.446;26.936;2023-08-12T03:54:04;99707.98;;;11.94;100.0
64025;BME280;50266;57.446;26.936;2023-08-12T03:55:04;99707.11;;;11.96;100.0
64025;BME280;50266;57.446;26.936;2023-08-12T03:56:04;99709.83;;;12.03;100.0
64025;BME280;50266;57.446;26.936;2023-08-12T03:57:04;99706.31;;;12.02;100.0
64025;BME280;50266;57.446;26.936;2023-08-12T03:58:04;99711.53;;;11.96;100.0
64025;BME280;50266;57.446;26.936;2023-08-12T03:59:04;99711.08;;;11.97;100.0
64025;BME280;50266;57.446;26.936;2023-08-12T04:00:04;99711.94;;;12.07;100.0
64025;BME280;50266;57.446;26.936;2023-08-12T04:01:04;99710.31;;;12.08;100.0
64025;BME280;50266;57.446;26.936;2023-08-12T04:02:04;99713.23;;;12.1;100.0
64025;BME280;50266;57.446;26.936;2023-08-12T04:03:04;99713.3;;;12.17;100.0
64025;BME280;50266;57.446;26.936;2023-08-12T04:04:04;99715.35;;;12.17;100.0
64025;BME280;50266;57.446;26.936;2023-08-12T04:05:04;99711.88;;;12.13;100.0
64025;BME280;50266;57.446;26.936;2023-08-12T04:06:04;99717.11;;;12.36;100.0
64025;BME280;50266;57.446;26.936;2023-08-12T04:07:04;99721.32;;;12.33;100.0
64025;BME280;50266;57.446;26.936;2023-08-12T04:08:04;99720.27;;;12.3;100.0
64025;BME280;50266;57.446;26.936;2023-08-12T04:09:09;99724.39;;;12.33;100.0
64025;BME280;50266;57.446;26.936;2023-08-12T04:10:06;99719.75;;;12.3;100.0
64025;BME280;50266;57.446;26.936;2023-08-12T04:11:06;99721.69;;;12.43;100.0
64025;BME280;50266;57.446;26.936;2023-08-12T04:12:06;99720.14;;;12.48;100.0
64025;BME280;50266;57.446;26.936;2023-08-12T04:13:06;99720.14;;;12.46;100.0
64025;BME280;50266;57.446;26.936;2023-08-12T04:14:06;99722.19;;;12.56;100.0
64025;BME280;50266;57.446;26.936;2023-08-12T04:15:06;99723.47;;;12.55;100.0
64025;BME280;50266;57.446;26.936;2023-08-12T04:16:06;99721.17;;;12.54;100.0
64025;BME280;50266;57.446;26.936;2023-08-12T04:17:06;99725.24;;;12.53;100.0
64025;BME280;50266;57.446;26.936;2023-08-12T04:18:06;99724.59;;;12.78;100.0
64025;BME280;50266;57.446;26.936;2023-08-12T04:19:06;99725.16;;;12.89;100.0
64025;BME280;50266;57.446;26.936;2023-08-12T04:20:06;99729.34;;;12.92;100.0
64025;BME280;50266;57.446;26.936;2023-08-12T04:21:06;99727.55;;;12.96;100.0
64025;BME280;50266;57.446;26.936;2023-08-12T04:22:06;99724.97;;;13.02;100.0
64025;BME280;50266;57.446;26.936;2023-08-12T04:23:06;99726.58;;;13.05;100.0
64025;BME280;50266;57.446;26.936;2023-08-12T04:24:06;99723.73;;;13.16;100.0
64025;BME280;50266;57.446;26.936;2023-08-12T04:25:06;99725.66;;;13.16;100.0
64025;BME280;50266;57.446;26.936;2023-08-12T04:26:06;99727.62;;;13.15;100.0
64025;BME280;50266;57.446;26.936;2023-08-12T04:27:06;99722.88;;;13.22;100.0
64025;BME280;50266;57.446;26.936;2023-08-12T04:28:06;99727.39;;;13.3;100.0
64025;BME280;50266;57.446;26.936;2023-08-12T04:29:06;99727.44;;;13.36;100.0
64025;BME280;50266;57.446;26.936;2023-08-12T04:30:06;99724.97;;;13.4;100.0
64025;BME280;50266;57.446;26.936;2023-08-12T04:31:06;99726.27;;;13.46;100.0
64025;BME280;50266;57.446;26.936;2023-08-12T04:32:07;99732.2;;;13.46;100.0
64025;BME280;50266;57.446;26.936;2023-08-12T04:33:06;99729.71;;;13.46;100.0
64025;BME280;50266;57.446;26.936;2023-08-12T04:34:07;99731.25;;;13.47;100.0
64025;BME280;50266;57.446;26.936;2023-08-12T04:35:07;99730.27;;;13.46;100.0
64025;BME280;50266;57.446;26.936;2023-08-12T04:36:07;99732.25;;;13.4;100.0
64025;BME280;50266;57.446;26.936;2023-08-12T04:37:07;99734.68;;;13.5;100.0
64025;BME280;50266;57.446;26.936;2023-08-12T04:38:07;99738.05;;;13.52;100.0
64025;BME280;50266;57.446;26.936;2023-08-12T04:39:07;99734.33;;;13.49;100.0
64025;BME280;50266;57.446;26.936;2023-08-12T04:40:07;99733.92;;;13.47;100.0
64025;BME280;50266;57.446;26.936;2023-08-12T04:41:07;99734.06;;;13.52;100.0
64025;BME280;50266;57.446;26.936;2023-08-12T04:42:07;99734.95;;;13.48;100.0
64025;BME280;50266;57.446;26.936;2023-08-12T04:43:10;99739.27;;;13.58;100.0
64025;BME280;50266;57.446;26.936;2023-08-12T04:44:07;99735.69;;;13.63;100.0
64025;BME280;50266;57.446;26.936;2023-08-12T04:45:07;99736.23;;;13.64;100.0
64025;BME280;50266;57.446;26.936;2023-08-12T04:46:07;99739.69;;;13.67;100.0
64025;BME280;50266;57.446;26.936;2023-08-12T04:47:07;99738.37;;;13.81;100.0
64025;BME280;50266;57.446;26.936;2023-08-12T04:48:07;99742.98;;;13.89;100.0
64025;BME280;50266;57.446;26.936;2023-08-12T04:49:07;99740.36;;;13.85;100.0
64025;BME280;50266;57.446;26.936;2023-08-12T04:50:07;99745.42;;;13.92;100.0
64025;BME280;50266;57.446;26.936;2023-08-12T04:51:07;99745.58;;;13.92;100.0
64025;BME280;50266;57.446;26.936;2023-08-12T04:52:07;99743.69;;;13.88;100.0
64025;BME280;50266;57.446;26.936;2023-08-12T04:53:07;99741.14;;;13.91;100.0
64025;BME280;50266;57.446;26.936;2023-08-12T04:54:07;99746.05;;;13.9;100.0
64025;BME280;50266;57.446;26.936;2023-08-12T04:55:07;99742.23;;;14.0;100.0
64025;BME280;50266;57.446;26.936;2023-08-12T04:56:07;99742.32;;;14.02;100.0
64025;BME280;50266;57.446;26.936;2023-08-12T04:57:07;99743.62;;;14.06;100.0
64025;BME280;50266;57.446;26.936;2023-08-12T04:58:07;99744.38;;;14.15;100.0
64025;BME280;50266;57.446;26.936;2023-08-12T04:59:07;99745.89;;;14.2;100.0
64025;BME280;50266;57.446;26.936;2023-08-12T05:00:07;99747.91;;;14.16;100.0
64025;BME280;50266;57.446;26.936;2023-08-12T05:01:07;99742.66;;;14.26;100.0
64025;BME280;50266;57.446;26.936;2023-08-12T05:02:07;99745.94;;;14.36;100.0
64025;BME280;50266;57.446;26.936;2023-08-12T05:03:07;99750.48;;;14.46;100.0
64025;BME280;50266;57.446;26.936;2023-08-12T05:04:07;99749.8;;;14.51;100.0
64025;BME280;50266;57.446;26.936;2023-08-12T05:05:07;99750.17;;;14.47;100.0
64025;BME280;50266;57.446;26.936;2023-08-12T05:06:07;99747.27;;;14.5;100.0
64025;BME280;50266;57.446;26.936;2023-08-12T05:07:07;99745.42;;;14.56;100.0
64025;BME280;50266;57.446;26.936;2023-08-12T05:08:07;99747.2;;;14.59;100.0
64025;BME280;50266;57.446;26.936;2023-08-12T05:09:07;99750.34;;;14.69;100.0
64025;BME280;50266;57.446;26.936;2023-08-12T05:10:07;99749.79;;;14.75;100.0
64025;BME280;50266;57.446;26.936;2023-08-12T05:11:07;99755.98;;;14.7;100.0
64025;BME280;50266;57.446;26.936;2023-08-12T05:12:07;99760.21;;;14.69;100.0
64025;BME280;50266;57.446;26.936;2023-08-12T05:13:07;99760.72;;;14.61;100.0
64025;BME280;50266;57.446;26.936;2023-08-12T05:14:07;99760.23;;;14.75;100.0
64025;BME280;50266;57.446;26.936;2023-08-12T05:15:08;99766.2;;;14.83;100.0
64025;BME280;50266;57.446;26.936;2023-08-12T05:16:07;99768.95;;;14.73;100.0